createdAt,value
2018-12-01T00:00:03.123Z,6.19
2018-12-01T00:01:13.310Z,6.26
2018-12-01T00:02:23.506Z,6.19
2018-12-01T00:03:33.683Z,6.16
2018-12-01T00:04:43.874Z,6.2
2018-12-01T00:05:53.934Z,6.26
2018-12-01T00:07:04.116Z,6.22
2018-12-01T00:08:14.294Z,6.13
2018-12-01T00:09:24.475Z,6.17
2018-12-01T00:10:34.389Z,6.22
2018-12-01T00:11:44.619Z,6.32
2018-12-01T00:12:54.802Z,6.32
2018-12-01T00:14:04.988Z,6.22
2018-12-01T00:15:15.175Z,6.28
2018-12-01T00:16:25.363Z,6.31
2018-12-01T00:17:35.599Z,6.38
2018-12-01T00:18:45.780Z,6.32
2018-12-01T00:19:55.965Z,6.32
2018-12-01T00:21:06.147Z,6.2
2018-12-01T00:22:16.329Z,6.2
2018-12-01T00:23:26.671Z,6.13
2018-12-01T00:24:36.853Z,6.2
2018-12-01T00:25:47.034Z,6.25
2018-12-01T00:26:57.217Z,6.13
2018-12-01T00:28:07.396Z,6.13
2018-12-01T00:29:17.673Z,6.13
2018-12-01T00:30:27.858Z,6.15
2018-12-01T00:31:38.036Z,6.15
2018-12-01T00:32:48.223Z,6.19
2018-12-01T00:33:58.417Z,6.15
2018-12-01T00:35:08.697Z,6.09
2018-12-01T00:36:18.879Z,6.1
2018-12-01T00:37:29.059Z,5.98
2018-12-01T00:38:39.282Z,5.94
2018-12-01T00:39:49.463Z,5.91
2018-12-01T00:40:59.755Z,5.81
2018-12-01T00:42:09.937Z,5.84
2018-12-01T00:43:20.116Z,5.81
2018-12-01T00:44:30.298Z,5.8
2018-12-01T00:45:40.483Z,5.79
2018-12-01T00:46:50.714Z,5.7
2018-12-01T00:48:00.903Z,5.67
2018-12-01T00:49:11.091Z,5.73
2018-12-01T00:50:21.282Z,5.62
2018-12-01T00:51:31.473Z,5.73
2018-12-01T00:52:41.760Z,5.67
2018-12-01T00:53:51.943Z,5.77
2018-12-01T00:55:02.125Z,5.73
2018-12-01T00:56:12.307Z,5.81
2018-12-01T00:57:22.496Z,5.83
2018-12-01T00:58:32.742Z,5.8
2018-12-01T00:59:42.923Z,5.94
2018-12-01T01:00:53.110Z,5.88
2018-12-01T01:02:03.289Z,5.84
2018-12-01T01:03:13.470Z,5.84
2018-12-01T01:04:23.839Z,5.88
2018-12-01T01:05:33.758Z,5.92
2018-12-01T01:06:43.940Z,5.99
2018-12-01T01:07:54.122Z,5.99
2018-12-01T01:09:04.307Z,5.95
2018-12-01T01:10:14.265Z,5.97
2018-12-01T01:11:24.445Z,5.98
2018-12-01T01:12:35.599Z,5.97
2018-12-01T01:13:45.781Z,6.02
2018-12-01T01:14:55.967Z,5.95
2018-12-01T01:16:06.196Z,6.01
2018-12-01T01:17:16.378Z,6.07
2018-12-01T01:18:26.575Z,6.1
2018-12-01T01:19:36.763Z,6.06
2018-12-01T01:20:46.946Z,6.1
2018-12-01T01:21:57.291Z,6.07
2018-12-01T01:23:07.482Z,6.12
2018-12-01T01:24:17.668Z,6.07
2018-12-01T01:25:27.856Z,6.09
2018-12-01T01:26:38.038Z,6.09
2018-12-01T01:27:48.318Z,6.02
2018-12-01T01:28:58.501Z,5.98
2018-12-01T01:30:08.682Z,6.01
2018-12-01T01:31:18.861Z,6.1
2018-12-01T01:32:29.048Z,5.98
2018-12-01T01:33:39.378Z,6.05
2018-12-01T01:34:49.563Z,5.98
2018-12-01T01:35:59.774Z,6.02
2018-12-01T01:37:09.957Z,5.99
2018-12-01T01:38:20.137Z,5.98
2018-12-01T01:39:30.372Z,5.97
2018-12-01T01:40:40.565Z,5.98
2018-12-01T01:41:50.759Z,5.94
2018-12-01T01:43:00.944Z,6.01
2018-12-01T01:44:11.126Z,5.98
2018-12-01T01:45:21.453Z,6.06
2018-12-01T01:46:31.635Z,5.98
2018-12-01T01:47:41.817Z,6.05
2018-12-01T01:48:52.013Z,5.97
2018-12-01T01:50:02.192Z,5.97
2018-12-01T01:51:12.422Z,5.99
2018-12-01T01:52:22.606Z,5.97
2018-12-01T01:53:32.785Z,5.95
2018-12-01T01:54:42.986Z,6.02
2018-12-01T01:55:53.174Z,5.99
2018-12-01T01:57:03.417Z,6.07
2018-12-01T01:58:13.604Z,6.06
2018-12-01T01:59:23.793Z,6.02
2018-12-01T02:00:33.984Z,5.95
2018-12-01T02:01:44.179Z,6.06
2018-12-01T02:02:54.514Z,5.97
2018-12-01T02:04:04.702Z,5.91
2018-12-01T02:05:14.884Z,5.98
2018-12-01T02:06:25.069Z,5.95
2018-12-01T02:07:35.253Z,5.9
2018-12-01T02:08:45.539Z,5.92
2018-12-01T02:09:55.726Z,6.01
2018-12-01T02:11:05.917Z,5.92
2018-12-01T02:12:16.100Z,5.99
2018-12-01T02:13:26.288Z,5.91
2018-12-01T02:14:36.633Z,5.94
2018-12-01T02:15:46.820Z,6.01
2018-12-01T02:16:57.210Z,6.02
2018-12-01T02:18:07.403Z,6.02
2018-12-01T02:19:17.589Z,5.97
2018-12-01T02:20:27.934Z,5.98
2018-12-01T02:21:38.123Z,6.02
2018-12-01T02:22:48.309Z,5.94
2018-12-01T02:23:58.504Z,5.83
2018-12-01T02:25:08.687Z,5.9
2018-12-01T02:26:18.973Z,5.87
2018-12-01T02:27:28.885Z,5.91
2018-12-01T02:28:39.072Z,5.9
2018-12-01T02:29:49.259Z,5.97
2018-12-01T02:30:59.453Z,5.81
2018-12-01T02:32:09.812Z,5.97
2018-12-01T02:33:20.028Z,6.01
2018-12-01T02:34:30.242Z,5.9
2018-12-01T02:35:40.434Z,5.99
2018-12-01T02:36:50.637Z,5.84
2018-12-01T02:38:00.961Z,5.87
2018-12-01T02:39:11.154Z,5.9
2018-12-01T02:40:21.356Z,5.87
2018-12-01T02:41:31.332Z,5.98
2018-12-01T02:42:41.516Z,6.06
2018-12-01T02:43:51.491Z,5.9
2018-12-01T02:45:01.679Z,5.92
2018-12-01T02:46:11.875Z,5.98
2018-12-01T02:47:22.067Z,6.05
2018-12-01T02:48:32.258Z,6.02
2018-12-01T02:49:42.541Z,5.95
2018-12-01T02:50:52.731Z,6.02
2018-12-01T02:52:02.923Z,6.1
2018-12-01T02:53:13.105Z,6.12
2018-12-01T02:54:23.290Z,6.05
2018-12-01T02:55:33.273Z,6.09
2018-12-01T02:56:43.462Z,6.01
2018-12-01T02:57:53.648Z,6.06
2018-12-01T02:59:03.847Z,6.06
2018-12-01T03:00:14.029Z,5.92
2018-12-01T03:01:24.316Z,6.02
2018-12-01T03:02:34.497Z,5.98
2018-12-01T03:03:44.722Z,5.88
2018-12-01T03:04:54.905Z,5.84
2018-12-01T03:06:05.083Z,5.79
2018-12-01T03:07:15.412Z,5.81
2018-12-01T03:08:25.592Z,5.79
2018-12-01T03:09:35.772Z,5.72
2018-12-01T03:10:45.964Z,5.62
2018-12-01T03:11:56.144Z,5.61
2018-12-01T03:13:06.376Z,5.67
2018-12-01T03:14:16.554Z,5.59
2018-12-01T03:15:26.746Z,5.56
2018-12-01T03:16:36.933Z,5.46
2018-12-01T03:17:47.119Z,5.47
2018-12-01T03:18:57.305Z,5.51
2018-12-01T03:20:07.486Z,5.43
2018-12-01T03:21:17.403Z,5.46
2018-12-01T03:22:27.599Z,5.51
2018-12-01T03:23:37.780Z,5.47
2018-12-01T03:24:48.058Z,5.38
2018-12-01T03:25:58.239Z,5.41
2018-12-01T03:27:08.416Z,5.44
2018-12-01T03:28:18.599Z,5.38
2018-12-01T03:29:28.782Z,5.43
2018-12-01T03:30:39.088Z,5.47
2018-12-01T03:31:49.297Z,5.55
2018-12-01T03:32:59.551Z,5.55
2018-12-01T03:34:09.759Z,5.52
2018-12-01T03:35:19.942Z,5.46
2018-12-01T03:36:30.291Z,5.55
2018-12-01T03:37:40.495Z,5.52
2018-12-01T03:38:50.682Z,5.47
2018-12-01T03:40:00.867Z,5.49
2018-12-01T03:41:11.044Z,5.51
2018-12-01T03:42:21.333Z,5.52
2018-12-01T03:43:31.523Z,5.52
2018-12-01T03:44:41.698Z,5.49
2018-12-01T03:45:51.877Z,5.49
2018-12-01T03:47:02.058Z,5.51
2018-12-01T03:48:12.299Z,5.59
2018-12-01T03:49:22.501Z,5.56
2018-12-01T03:50:32.681Z,5.64
2018-12-01T03:51:42.863Z,5.54
2018-12-01T03:52:53.054Z,5.56
2018-12-01T03:54:03.387Z,5.61
2018-12-01T03:55:13.567Z,5.54
2018-12-01T03:56:23.745Z,5.55
2018-12-01T03:57:33.925Z,5.47
2018-12-01T03:58:44.101Z,5.44
2018-12-01T03:59:54.330Z,5.46
2018-12-01T04:01:04.508Z,5.49
2018-12-01T04:02:14.690Z,5.49
2018-12-01T04:03:24.928Z,5.54
2018-12-01T04:04:35.105Z,5.49
2018-12-01T04:05:45.066Z,5.44
2018-12-01T04:06:55.253Z,5.46
2018-12-01T04:08:05.430Z,5.51
2018-12-01T04:09:15.609Z,5.55
2018-12-01T04:10:25.790Z,5.49
2018-12-01T04:11:36.159Z,5.49
2018-12-01T04:12:46.341Z,5.51
2018-12-01T04:13:56.518Z,5.36
2018-12-01T04:15:06.700Z,5.43
2018-12-01T04:16:16.880Z,5.34
2018-12-01T04:17:27.209Z,5.31
2018-12-01T04:18:37.389Z,5.34
2018-12-01T04:19:47.566Z,5.22
2018-12-01T04:20:57.749Z,5.28
2018-12-01T04:22:07.978Z,5.22
2018-12-01T04:23:18.256Z,5.19
2018-12-01T04:24:28.434Z,5.13
2018-12-01T04:25:38.611Z,5.2
2018-12-01T04:26:48.791Z,5.15
2018-12-01T04:27:58.970Z,5.19
2018-12-01T04:29:09.299Z,5.16
2018-12-01T04:30:19.481Z,5.2
2018-12-01T04:31:29.663Z,5.19
2018-12-01T04:32:39.842Z,5.15
2018-12-01T04:33:50.026Z,5.13
2018-12-01T04:35:00.357Z,5.01
2018-12-01T04:36:10.536Z,5.13
2018-12-01T04:37:20.717Z,5.01
2018-12-01T04:38:30.901Z,5.13
2018-12-01T04:39:41.081Z,5.02
2018-12-01T04:40:51.138Z,5.01
2018-12-01T04:42:01.316Z,5.05
2018-12-01T04:43:11.497Z,5.01
2018-12-01T04:44:21.407Z,5.05
2018-12-01T04:45:31.592Z,5.02
2018-12-01T04:46:41.823Z,5.04
2018-12-01T04:47:52.009Z,4.92
2018-12-01T04:49:02.195Z,4.98
2018-12-01T04:50:12.382Z,4.94
2018-12-01T04:51:22.563Z,5
2018-12-01T04:52:32.793Z,4.95
2018-12-01T04:53:42.974Z,4.98
2018-12-01T04:54:53.152Z,4.92
2018-12-01T04:56:03.332Z,4.94
2018-12-01T04:57:13.518Z,4.87
2018-12-01T04:58:23.801Z,4.87
2018-12-01T04:59:33.984Z,4.86
2018-12-01T05:00:44.175Z,4.89
2018-12-01T05:01:54.090Z,4.79
2018-12-01T05:03:04.273Z,4.87
2018-12-01T05:04:14.567Z,4.83
2018-12-01T05:05:24.760Z,4.82
2018-12-01T05:06:34.942Z,4.83
2018-12-01T05:07:45.121Z,4.87
2018-12-01T05:08:55.310Z,4.86
2018-12-01T05:10:05.612Z,4.97
2018-12-01T05:11:15.797Z,5
2018-12-01T05:12:25.977Z,5
2018-12-01T05:13:36.164Z,5.07
2018-12-01T05:14:46.345Z,4.98
2018-12-01T05:15:56.588Z,5.13
2018-12-01T05:17:06.767Z,5.13
2018-12-01T05:18:16.944Z,5.16
2018-12-01T05:19:27.122Z,5.26
2018-12-01T05:20:37.308Z,5.19
2018-12-01T05:21:47.641Z,5.28
2018-12-01T05:22:57.822Z,5.22
2018-12-01T05:24:08.002Z,5.2
2018-12-01T05:25:18.191Z,5.25
2018-12-01T05:26:28.099Z,5.25
2018-12-01T05:27:38.325Z,5.31
2018-12-01T05:28:48.523Z,5.25
2018-12-01T05:29:58.704Z,5.33
2018-12-01T05:31:08.893Z,5.34
2018-12-01T05:32:19.078Z,5.34
2018-12-01T05:33:29.043Z,5.29
2018-12-01T05:34:39.223Z,5.33
2018-12-01T05:35:49.406Z,5.38
2018-12-01T05:36:59.588Z,5.28
2018-12-01T05:38:09.794Z,5.34
2018-12-01T05:39:20.023Z,5.37
2018-12-01T05:40:30.199Z,5.4
2018-12-01T05:41:40.384Z,5.34
2018-12-01T05:42:50.571Z,5.34
2018-12-01T05:44:00.757Z,5.37
2018-12-01T05:45:11.045Z,5.33
2018-12-01T05:46:21.233Z,5.31
2018-12-01T05:47:31.409Z,5.36
2018-12-01T05:48:41.606Z,5.26
2018-12-01T05:49:51.790Z,5.37
2018-12-01T05:51:02.125Z,5.34
2018-12-01T05:52:12.310Z,5.23
2018-12-01T05:53:22.484Z,5.26
2018-12-01T05:54:32.663Z,5.36
2018-12-01T05:55:42.845Z,5.31
2018-12-01T05:56:53.075Z,5.33
2018-12-01T05:58:03.253Z,5.36
2018-12-01T05:59:13.432Z,5.47
2018-12-01T06:00:23.619Z,5.4
2018-12-01T06:01:33.797Z,5.38
2018-12-01T06:02:44.131Z,5.49
2018-12-01T06:03:54.309Z,5.43
2018-12-01T06:05:04.489Z,5.28
2018-12-01T06:06:14.666Z,5.29
2018-12-01T06:07:24.844Z,5.25
2018-12-01T06:08:35.123Z,5.25
2018-12-01T06:09:45.304Z,5.28
2018-12-01T06:10:55.497Z,5.22
2018-12-01T06:12:05.688Z,5.26
2018-12-01T06:13:15.870Z,5.31
2018-12-01T06:14:26.209Z,5.36
2018-12-01T06:15:36.389Z,5.31
2018-12-01T06:16:46.310Z,5.34
2018-12-01T06:17:56.506Z,5.26
2018-12-01T06:19:06.686Z,5.33
2018-12-01T06:20:16.921Z,5.38
2018-12-01T06:21:27.121Z,5.34
2018-12-01T06:22:37.303Z,5.23
2018-12-01T06:23:47.483Z,5.2
2018-12-01T06:24:57.668Z,5.15
2018-12-01T06:26:07.696Z,5.22
2018-12-01T06:27:17.873Z,5.16
2018-12-01T06:28:28.085Z,5.13
2018-12-01T06:29:38.276Z,5.12
2018-12-01T06:30:48.455Z,5.1
2018-12-01T06:31:58.791Z,5.18
2018-12-01T06:33:08.972Z,5.15
2018-12-01T06:34:19.161Z,5.1
2018-12-01T06:35:29.342Z,5.07
2018-12-01T06:36:39.523Z,5.2
2018-12-01T06:37:49.753Z,5.23
2018-12-01T06:38:59.669Z,5.13
2018-12-01T06:40:09.849Z,5.23
2018-12-01T06:41:20.028Z,5.22
2018-12-01T06:42:30.214Z,5.22
2018-12-01T06:43:40.497Z,5.19
2018-12-01T06:44:50.675Z,5.26
2018-12-01T06:46:00.856Z,5.22
2018-12-01T06:47:11.037Z,5.08
2018-12-01T06:48:21.221Z,5.12
2018-12-01T06:49:31.504Z,5.16
2018-12-01T06:50:41.682Z,5.16
2018-12-01T06:51:51.866Z,5.15
2018-12-01T06:53:02.045Z,5.2
2018-12-01T06:54:12.228Z,5.07
2018-12-01T06:55:22.553Z,5.13
2018-12-01T06:56:32.732Z,5.13
2018-12-01T06:57:42.918Z,5.13
2018-12-01T06:58:53.098Z,5.12
2018-12-01T07:00:03.284Z,5.19
2018-12-01T07:01:13.567Z,5.16
2018-12-01T07:02:23.746Z,5.22
2018-12-01T07:03:33.924Z,5.22
2018-12-01T07:04:44.109Z,5.23
2018-12-01T07:05:54.288Z,5.19
2018-12-01T07:07:04.355Z,5.18
2018-12-01T07:08:14.537Z,5.26
2018-12-01T07:09:24.725Z,5.23
2018-12-01T07:10:34.908Z,5.29
2018-12-01T07:11:45.100Z,5.29
2018-12-01T07:12:55.442Z,5.23
2018-12-01T07:14:05.623Z,5.29
2018-12-01T07:15:15.538Z,5.29
2018-12-01T07:16:25.449Z,5.26
2018-12-01T07:17:35.626Z,5.28
2018-12-01T07:18:45.863Z,5.26
2018-12-01T07:19:56.051Z,5.23
2018-12-01T07:21:06.237Z,5.2
2018-12-01T07:22:16.421Z,5.38
2018-12-01T07:23:26.599Z,5.36
2018-12-01T07:24:36.934Z,5.29
2018-12-01T07:25:47.108Z,5.23
2018-12-01T07:26:57.297Z,5.26
2018-12-01T07:28:07.478Z,5.18
2018-12-01T07:29:17.660Z,5.28
2018-12-01T07:30:27.938Z,5.23
2018-12-01T07:31:38.114Z,5.19
2018-12-01T07:32:48.307Z,5.22
2018-12-01T07:33:58.498Z,5.16
2018-12-01T07:35:08.692Z,5.19
2018-12-01T07:36:18.973Z,5.08
2018-12-01T07:37:29.162Z,5.18
2018-12-01T07:38:39.339Z,5.08
2018-12-01T07:39:49.262Z,5.08
2018-12-01T07:40:59.442Z,5.05
2018-12-01T07:42:09.821Z,5.04
2018-12-01T07:43:19.999Z,5.02
2018-12-01T07:44:30.180Z,5
2018-12-01T07:45:40.363Z,5.07
2018-12-01T07:46:50.545Z,5
2018-12-01T07:48:00.776Z,5.01
2018-12-01T07:49:10.961Z,5.02
2018-12-01T07:50:21.145Z,5.04
2018-12-01T07:51:32.077Z,5.04
2018-12-01T07:52:42.258Z,5.05
2018-12-01T07:53:52.538Z,5
2018-12-01T07:55:02.716Z,5.02
2018-12-01T07:56:12.899Z,5.05
2018-12-01T07:57:23.080Z,5.05
2018-12-01T07:58:33.258Z,5.07
2018-12-01T07:59:43.591Z,5.01
2018-12-01T08:00:53.508Z,5.05
2018-12-01T08:02:03.694Z,5.02
2018-12-01T08:03:13.876Z,5.05
2018-12-01T08:04:24.056Z,5
2018-12-01T08:05:34.336Z,5
2018-12-01T08:06:44.248Z,5.13
2018-12-01T08:07:54.426Z,5.07
2018-12-01T08:09:04.609Z,5.07
2018-12-01T08:10:14.790Z,5.01
2018-12-01T08:11:25.126Z,5.02
2018-12-01T08:12:35.303Z,5.04
2018-12-01T08:13:45.480Z,5.12
2018-12-01T08:14:55.665Z,5.04
2018-12-01T08:16:05.845Z,5.02
2018-12-01T08:17:16.181Z,5.01
2018-12-01T08:18:26.416Z,5.13
2018-12-01T08:19:36.594Z,5.1
2018-12-01T08:20:46.781Z,5.15
2018-12-01T08:21:57.962Z,5.15
2018-12-01T08:23:08.245Z,5.18
2018-12-01T08:24:18.423Z,5.18
2018-12-01T08:25:28.602Z,5.16
2018-12-01T08:26:38.788Z,5.1
2018-12-01T08:27:48.976Z,5.07
2018-12-01T08:28:59.309Z,5
2018-12-01T08:30:09.488Z,5.01
2018-12-01T08:31:19.669Z,5.1
2018-12-01T08:32:29.853Z,5.01
2018-12-01T08:33:40.034Z,5.05
2018-12-01T08:34:50.269Z,5.01
2018-12-01T08:36:00.451Z,5.01
2018-12-01T08:37:10.659Z,5.05
2018-12-01T08:38:20.845Z,5
2018-12-01T08:39:31.029Z,5.01
2018-12-01T08:40:41.265Z,5.04
2018-12-01T08:41:51.444Z,5.08
2018-12-01T08:43:01.627Z,5.1
2018-12-01T08:44:11.815Z,5.02
2018-12-01T08:45:21.999Z,5.05
2018-12-01T08:46:32.329Z,5.01
2018-12-01T08:47:42.514Z,5.12
2018-12-01T08:48:52.712Z,5.02
2018-12-01T08:50:02.888Z,5.01
2018-12-01T08:51:13.075Z,5.01
2018-12-01T08:52:23.404Z,5.16
2018-12-01T08:53:33.581Z,5.12
2018-12-01T08:54:43.762Z,5.05
2018-12-01T08:55:53.945Z,5.13
2018-12-01T08:57:04.124Z,5.15
2018-12-01T08:58:14.455Z,5.12
2018-12-01T08:59:24.645Z,5.07
2018-12-01T09:00:34.822Z,5.02
2018-12-01T09:01:45.003Z,5.04
2018-12-01T09:02:55.191Z,5.04
2018-12-01T09:04:05.535Z,5.05
2018-12-01T09:05:15.720Z,5.15
2018-12-01T09:06:25.900Z,5.16
2018-12-01T09:07:36.081Z,5.16
2018-12-01T09:08:46.264Z,5.18
2018-12-01T09:09:56.493Z,5.23
2018-12-01T09:11:06.403Z,5.25
2018-12-01T09:12:16.715Z,5.29
2018-12-01T09:13:26.898Z,5.22
2018-12-01T09:14:37.085Z,5.26
2018-12-01T09:15:47.318Z,5.38
2018-12-01T09:16:57.500Z,5.43
2018-12-01T09:18:07.682Z,5.41
2018-12-01T09:19:17.867Z,5.49
2018-12-01T09:20:28.048Z,5.46
2018-12-01T09:21:38.328Z,5.46
2018-12-01T09:22:48.513Z,5.52
2018-12-01T09:23:58.698Z,5.58
2018-12-01T09:25:08.883Z,5.59
2018-12-01T09:26:19.066Z,5.58
2018-12-01T09:27:29.401Z,5.58
2018-12-01T09:28:39.323Z,5.67
2018-12-01T09:29:49.510Z,5.65
2018-12-01T09:30:59.693Z,5.64
2018-12-01T09:32:09.873Z,5.65
2018-12-01T09:33:20.103Z,5.69
2018-12-01T09:34:30.286Z,5.7
2018-12-01T09:35:40.468Z,5.64
2018-12-01T09:36:50.650Z,5.62
2018-12-01T09:38:00.839Z,5.64
2018-12-01T09:39:11.175Z,5.76
2018-12-01T09:40:21.362Z,5.73
2018-12-01T09:41:31.549Z,5.74
2018-12-01T09:42:41.730Z,5.8
2018-12-01T09:43:51.911Z,5.8
2018-12-01T09:45:02.142Z,5.84
2018-12-01T09:46:12.321Z,5.81
2018-12-01T09:47:22.508Z,5.84
2018-12-01T09:48:32.686Z,5.87
2018-12-01T09:49:42.868Z,5.9
2018-12-01T09:50:53.192Z,5.84
2018-12-01T09:52:03.374Z,5.94
2018-12-01T09:53:13.554Z,5.91
2018-12-01T09:54:23.736Z,5.87
2018-12-01T09:55:33.923Z,5.92
2018-12-01T09:56:43.903Z,5.94
2018-12-01T09:57:54.085Z,5.87
2018-12-01T09:59:04.271Z,5.95
2018-12-01T10:00:14.456Z,5.98
2018-12-01T10:01:24.641Z,5.94
2018-12-01T10:02:34.889Z,5.98
2018-12-01T10:03:45.076Z,5.98
2018-12-01T10:04:55.272Z,5.98
2018-12-01T10:06:05.454Z,5.94
2018-12-01T10:07:15.372Z,6.12
2018-12-01T10:08:25.702Z,5.99
2018-12-01T10:09:35.896Z,5.99
2018-12-01T10:10:46.075Z,5.94
2018-12-01T10:11:56.264Z,5.98
2018-12-01T10:13:06.180Z,5.98
2018-12-01T10:14:16.513Z,6.02
2018-12-01T10:15:26.693Z,5.98
2018-12-01T10:16:36.875Z,5.92
2018-12-01T10:17:47.085Z,5.99
2018-12-01T10:19:01.417Z,6.05
2018-12-01T10:20:11.646Z,5.94
2018-12-01T10:21:21.846Z,5.97
2018-12-01T10:22:32.043Z,5.98
2018-12-01T10:23:42.225Z,5.88
2018-12-01T10:24:52.409Z,5.83
2018-12-01T10:26:02.748Z,5.88
2018-12-01T10:27:12.935Z,5.98
2018-12-01T10:28:23.116Z,5.97
2018-12-01T10:29:33.971Z,6.02
2018-12-01T10:30:44.226Z,6.07
2018-12-01T10:31:54.505Z,6.26
2018-12-01T10:33:04.693Z,6.22
2018-12-01T10:34:14.878Z,6.15
2018-12-01T10:35:25.061Z,6.32
2018-12-01T10:36:35.249Z,6.15
2018-12-01T10:37:45.479Z,6.2
2018-12-01T10:38:55.665Z,6.15
2018-12-01T10:40:11.479Z,6.25
2018-12-01T10:41:21.659Z,6.22
2018-12-01T10:42:31.842Z,6.15
2018-12-01T10:43:42.137Z,6.17
2018-12-01T10:44:52.317Z,6.2
2018-12-01T10:46:03.063Z,6.25
2018-12-01T10:47:13.245Z,6.17
2018-12-01T10:48:23.431Z,6.25
2018-12-01T10:49:33.615Z,6.25
2018-12-01T10:50:43.796Z,6.28
2018-12-01T10:51:53.982Z,6.19
2018-12-01T10:53:04.162Z,6.12
2018-12-01T10:54:14.340Z,6.13
2018-12-01T10:55:24.620Z,6.17
2018-12-01T10:56:34.550Z,6.15
2018-12-01T10:57:44.730Z,6.16
2018-12-01T10:58:54.917Z,6.15
2018-12-01T11:00:05.098Z,6.09
2018-12-01T11:01:15.386Z,6.1
2018-12-01T11:02:25.572Z,6.12
2018-12-01T11:03:35.756Z,6.07
2018-12-01T11:04:45.933Z,6.09
2018-12-01T11:05:56.119Z,6.1
2018-12-01T11:07:06.398Z,6.15
2018-12-01T11:08:16.580Z,6.09
2018-12-01T11:09:26.758Z,6.09
2018-12-01T11:10:36.937Z,6.09
2018-12-01T11:11:47.146Z,6.01
2018-12-01T11:12:57.331Z,6.05
2018-12-01T11:14:07.245Z,5.99
2018-12-01T11:15:17.432Z,5.95
2018-12-01T11:16:27.616Z,6.07
2018-12-01T11:17:37.798Z,6.15
2018-12-01T11:18:48.132Z,6.06
2018-12-01T11:19:58.316Z,6.06
2018-12-01T11:21:08.502Z,6.07
2018-12-01T11:22:18.687Z,6.09
2018-12-01T11:23:28.874Z,6.1
2018-12-01T11:24:39.060Z,6.07
2018-12-01T11:25:49.242Z,6.12
2018-12-01T11:26:59.434Z,6.22
2018-12-01T11:28:09.618Z,6.36
2018-12-01T11:29:19.531Z,6.44
2018-12-01T11:30:29.721Z,6.36
2018-12-01T11:31:39.645Z,6.44
2018-12-01T11:32:49.834Z,6.49
2018-12-01T11:34:00.024Z,6.6
2018-12-01T11:35:10.202Z,6.7
2018-12-01T11:36:20.383Z,6.74
2018-12-01T11:37:30.570Z,6.83
2018-12-01T11:38:40.756Z,6.8
2018-12-01T11:39:50.943Z,7.04
2018-12-01T11:41:00.859Z,7.1
2018-12-01T11:42:11.142Z,7.33
2018-12-01T11:43:21.330Z,7.25
2018-12-01T11:44:31.513Z,7.25
2018-12-01T11:45:41.695Z,7.11
2018-12-01T11:46:51.897Z,7.14
2018-12-01T11:48:02.179Z,7.11
2018-12-01T11:49:12.148Z,7.11
2018-12-01T11:50:22.333Z,7.51
2018-12-01T11:51:32.562Z,7.78
2018-12-01T11:52:42.751Z,7.77
2018-12-01T11:53:52.941Z,7.8
2018-12-01T11:55:03.127Z,7.62
2018-12-01T11:56:13.310Z,7.51
2018-12-01T11:57:23.500Z,7.55
2018-12-01T11:58:33.687Z,7.56
2018-12-01T11:59:43.977Z,7.62
2018-12-01T12:00:54.174Z,7.44
2018-12-01T12:02:05.587Z,7.25
2018-12-01T12:03:15.780Z,7.28
2018-12-01T12:04:25.970Z,7.14
2018-12-01T12:05:36.205Z,7.14
2018-12-01T12:06:46.391Z,7.13
2018-12-01T12:07:56.575Z,7.03
2018-12-01T12:09:06.763Z,6.95
2018-12-01T12:10:16.946Z,6.93
2018-12-01T12:11:27.186Z,6.82
2018-12-01T12:12:37.373Z,6.92
2018-12-01T12:13:47.562Z,7
2018-12-01T12:14:57.751Z,6.89
2018-12-01T12:16:07.936Z,6.9
2018-12-01T12:17:18.168Z,6.78
2018-12-01T12:18:28.920Z,6.87
2018-12-01T12:19:39.606Z,6.8
2018-12-01T12:20:49.846Z,6.74
2018-12-01T12:22:00.036Z,6.71
2018-12-01T12:23:10.320Z,6.7
2018-12-01T12:24:20.237Z,6.62
2018-12-01T12:25:30.429Z,6.59
2018-12-01T12:26:40.618Z,6.53
2018-12-01T12:27:50.810Z,6.53
2018-12-01T12:29:00.826Z,6.47
2018-12-01T12:30:11.014Z,6.5
2018-12-01T12:31:21.199Z,6.43
2018-12-01T12:32:31.123Z,6.49
2018-12-01T12:33:41.306Z,6.29
2018-12-01T12:34:51.644Z,6.34
2018-12-01T12:36:01.835Z,6.36
2018-12-01T12:37:12.029Z,6.35
2018-12-01T12:38:22.215Z,6.29
2018-12-01T12:39:32.398Z,6.2
2018-12-01T12:40:42.681Z,6.26
2018-12-01T12:41:52.865Z,6.15
2018-12-01T12:43:03.047Z,6.19
2018-12-01T12:44:12.987Z,6.16
2018-12-01T12:45:23.170Z,6.25
2018-12-01T12:46:34.052Z,6.13
2018-12-01T12:47:44.302Z,6.2
2018-12-01T12:48:54.495Z,6.2
2018-12-01T12:50:04.678Z,6.26
2018-12-01T12:51:14.869Z,6.19
2018-12-01T12:52:25.155Z,6.19
2018-12-01T12:53:35.337Z,6.25
2018-12-01T12:54:45.248Z,6.25
2018-12-01T12:55:55.431Z,6.13
2018-12-01T12:57:05.366Z,6.2
2018-12-01T12:58:15.647Z,6.12
2018-12-01T12:59:25.834Z,6.15
2018-12-01T13:00:36.556Z,6.09
2018-12-01T13:01:46.878Z,6.07
2018-12-01T13:02:57.061Z,6.02
2018-12-01T13:04:07.345Z,6.09
2018-12-01T13:05:17.528Z,6.01
2018-12-01T13:06:27.450Z,6.12
2018-12-01T13:07:37.631Z,5.97
2018-12-01T13:08:47.816Z,6.06
2018-12-01T13:09:57.997Z,6.06
2018-12-01T13:11:08.185Z,6.07
2018-12-01T13:12:18.370Z,6.1
2018-12-01T13:13:28.554Z,6.05
2018-12-01T13:14:38.737Z,6.06
2018-12-01T13:15:48.758Z,6.02
2018-12-01T13:16:58.938Z,5.95
2018-12-01T13:18:09.123Z,5.91
2018-12-01T13:19:19.303Z,5.91
2018-12-01T13:20:29.528Z,5.88
2018-12-01T13:21:39.814Z,5.83
2018-12-01T13:22:49.993Z,5.88
2018-12-01T13:24:00.173Z,5.81
2018-12-01T13:25:10.357Z,5.79
2018-12-01T13:26:20.541Z,5.79
2018-12-01T13:27:30.729Z,5.83
2018-12-01T13:28:40.908Z,5.73
2018-12-01T13:29:51.090Z,5.8
2018-12-01T13:31:01.269Z,5.73
2018-12-01T13:32:11.451Z,5.69
2018-12-01T13:33:21.637Z,5.65
2018-12-01T13:34:31.897Z,5.65
2018-12-01T13:35:42.103Z,5.67
2018-12-01T13:36:52.290Z,5.61
2018-12-01T13:38:02.480Z,5.59
2018-12-01T13:39:13.266Z,5.51
2018-12-01T13:40:23.450Z,5.59
2018-12-01T13:41:33.634Z,5.51
2018-12-01T13:42:43.548Z,5.52
2018-12-01T13:43:53.732Z,5.36
2018-12-01T13:45:03.920Z,5.4
2018-12-01T13:46:14.100Z,5.29
2018-12-01T13:47:24.284Z,5.28
2018-12-01T13:48:34.470Z,5.22
2018-12-01T13:49:44.652Z,5.31
2018-12-01T13:50:54.834Z,5.28
2018-12-01T13:52:05.512Z,5.25
2018-12-01T13:53:15.698Z,5.23
2018-12-01T13:54:25.882Z,5.12
2018-12-01T13:55:36.060Z,5.13
2018-12-01T13:56:46.400Z,5.02
2018-12-01T13:57:56.591Z,5.02
2018-12-01T13:59:06.775Z,5.04
2018-12-01T14:00:16.959Z,5.01
2018-12-01T14:01:27.139Z,4.98
2018-12-01T14:02:37.316Z,5.02
2018-12-01T14:03:47.506Z,4.97
2018-12-01T14:04:57.690Z,5.02
2018-12-01T14:06:07.870Z,5.01
2018-12-01T14:07:18.046Z,4.89
2018-12-01T14:08:28.237Z,5.04
2018-12-01T14:09:38.427Z,5.02
2018-12-01T14:10:48.623Z,4.97
2018-12-01T14:11:58.818Z,5.01
2018-12-01T14:13:08.997Z,5
2018-12-01T14:14:19.287Z,5
2018-12-01T14:15:29.466Z,5.02
2018-12-01T14:16:39.645Z,5.01
2018-12-01T14:17:50.658Z,5.02
2018-12-01T14:19:00.849Z,5.02
2018-12-01T14:20:11.130Z,5
2018-12-01T14:21:21.323Z,5.02
2018-12-01T14:22:31.230Z,4.95
2018-12-01T14:23:41.417Z,5.04
2018-12-01T14:24:51.601Z,5
2018-12-01T14:26:01.948Z,4.97
2018-12-01T14:27:12.134Z,4.98
2018-12-01T14:28:22.327Z,4.98
2018-12-01T14:29:32.506Z,5.02
2018-12-01T14:30:42.722Z,5
2018-12-01T14:31:53.005Z,4.84
2018-12-01T14:33:03.187Z,4.92
2018-12-01T14:34:13.372Z,4.86
2018-12-01T14:35:23.553Z,4.86
2018-12-01T14:36:33.783Z,4.78
2018-12-01T14:37:43.961Z,4.78
2018-12-01T14:38:54.146Z,4.75
2018-12-01T14:40:04.335Z,4.75
2018-12-01T14:41:14.527Z,4.75
2018-12-01T14:42:24.707Z,4.76
2018-12-01T14:43:34.988Z,4.67
2018-12-01T14:44:45.169Z,4.57
2018-12-01T14:45:55.356Z,4.63
2018-12-01T14:47:05.544Z,4.58
2018-12-01T14:48:15.723Z,4.53
2018-12-01T14:49:25.908Z,4.52
2018-12-01T14:50:36.087Z,4.48
2018-12-01T14:51:46.275Z,4.58
2018-12-01T14:52:56.457Z,4.48
2018-12-01T14:54:06.646Z,4.56
2018-12-01T14:55:16.560Z,4.4
2018-12-01T14:56:26.738Z,4.45
2018-12-01T14:57:36.920Z,4.48
2018-12-01T14:58:47.424Z,4.43
2018-12-01T14:59:57.611Z,4.49
2018-12-01T15:01:07.951Z,4.49
2018-12-01T15:02:18.130Z,4.6
2018-12-01T15:03:28.506Z,4.48
2018-12-01T15:04:38.686Z,4.57
2018-12-01T15:05:48.870Z,4.5
2018-12-01T15:06:59.055Z,4.7
2018-12-01T15:08:09.239Z,4.76
2018-12-01T15:09:19.426Z,4.84
2018-12-01T15:10:29.614Z,4.94
2018-12-01T15:11:39.802Z,4.92
2018-12-01T15:12:50.083Z,5.04
2018-12-01T15:14:00.268Z,5.02
2018-12-01T15:15:10.466Z,5.01
2018-12-01T15:16:20.663Z,5.08
2018-12-01T15:17:30.851Z,5.07
2018-12-01T15:18:41.034Z,5.16
2018-12-01T15:19:51.224Z,5.19
2018-12-01T15:21:01.140Z,5.13
2018-12-01T15:22:11.323Z,5.16
2018-12-01T15:23:21.511Z,5.18
2018-12-01T15:24:31.791Z,5.2
2018-12-01T15:25:41.970Z,5.08
2018-12-01T15:26:52.171Z,5.22
2018-12-01T15:28:02.357Z,5.18
2018-12-01T15:29:12.537Z,5.15
2018-12-01T15:30:22.721Z,5.19
2018-12-01T15:31:32.900Z,5.12
2018-12-01T15:32:42.809Z,5.16
2018-12-01T15:33:52.990Z,5.1
2018-12-01T15:35:03.170Z,5.15
2018-12-01T15:36:13.402Z,5.13
2018-12-01T15:37:23.581Z,5.13
2018-12-01T15:38:33.766Z,5.23